sensor_id;sensor_type;location;lat;lon;timestamp;pressure;altitude;pressure_sealevel;temperature;humidity
12471;BME280;36499;46.484;13.832;2024-03-22T00:01:53;93583.38;;;4.38;100.00
12471;BME280;36499;46.484;13.832;2024-03-22T00:04:20;93589.47;;;4.37;100.00
12471;BME280;36499;46.484;13.832;2024-03-22T00:06:47;93587.84;;;4.36;100.00
12471;BME280;36499;46.484;13.832;2024-03-22T00:09:14;93576.59;;;4.37;100.00
12471;BME280;36499;46.484;13.832;2024-03-22T00:11:41;93579.69;;;4.31;100.00
12471;BME280;36499;46.484;13.832;2024-03-22T00:14:08;93576.31;;;4.30;100.00
12471;BME280;36499;46.484;13.832;2024-03-22T00:16:34;93578.06;;;4.30;100.00
12471;BME280;36499;46.484;13.832;2024-03-22T00:19:01;93574.91;;;4.16;100.00
12471;BME280;36499;46.484;13.832;2024-03-22T00:21:27;93584.09;;;4.09;100.00
12471;BME280;36499;46.484;13.832;2024-03-22T00:23:54;93583.00;;;4.02;100.00
12471;BME280;36499;46.484;13.832;2024-03-22T00:26:20;93579.34;;;4.05;100.00
12471;BME280;36499;46.484;13.832;2024-03-22T00:28:47;93581.69;;;4.17;100.00
12471;BME280;36499;46.484;13.832;2024-03-22T00:31:13;93575.47;;;4.20;100.00
12471;BME280;36499;46.484;13.832;2024-03-22T00:33:39;93574.97;;;4.36;100.00
12471;BME280;36499;46.484;13.832;2024-03-22T00:36:05;93572.09;;;4.19;100.00
12471;BME280;36499;46.484;13.832;2024-03-22T00:38:32;93581.78;;;4.06;100.00
12471;BME280;36499;46.484;13.832;2024-03-22T00:40:58;93584.75;;;4.02;100.00
12471;BME280;36499;46.484;13.832;2024-03-22T00:43:24;93581.31;;;3.91;100.00
12471;BME280;36499;46.484;13.832;2024-03-22T00:45:50;93578.75;;;3.91;100.00
12471;BME280;36499;46.484;13.832;2024-03-22T00:48:16;93573.06;;;3.88;100.00
12471;BME280;36499;46.484;13.832;2024-03-22T00:50:43;93576.88;;;3.93;100.00
12471;BME280;36499;46.484;13.832;2024-03-22T00:53:10;93574.59;;;4.00;100.00
12471;BME280;36499;46.484;13.832;2024-03-22T00:55:36;93573.91;;;3.98;100.00
12471;BME280;36499;46.484;13.832;2024-03-22T00:58:02;93577.06;;;4.11;100.00
12471;BME280;36499;46.484;13.832;2024-03-22T01:00:28;93573.66;;;4.01;100.00
12471;BME280;36499;46.484;13.832;2024-03-22T01:02:55;93575.63;;;3.88;100.00
12471;BME280;36499;46.484;13.832;2024-03-22T01:05:20;93572.63;;;3.73;100.00
12471;BME280;36499;46.484;13.832;2024-03-22T01:07:47;93568.81;;;3.68;100.00
12471;BME280;36499;46.484;13.832;2024-03-22T01:10:12;93570.56;;;3.67;100.00
12471;BME280;36499;46.484;13.832;2024-03-22T01:12:39;93571.72;;;3.53;100.00
12471;BME280;36499;46.484;13.832;2024-03-22T01:15:06;93569.63;;;3.38;100.00
12471;BME280;36499;46.484;13.832;2024-03-22T01:17:33;93574.06;;;3.36;100.00
12471;BME280;36499;46.484;13.832;2024-03-22T01:19:59;93557.78;;;3.25;100.00
12471;BME280;36499;46.484;13.832;2024-03-22T01:22:26;93566.94;;;3.18;100.00
12471;BME280;36499;46.484;13.832;2024-03-22T01:24:51;93563.88;;;3.24;100.00
12471;BME280;36499;46.484;13.832;2024-03-22T01:27:18;93571.94;;;3.20;100.00
12471;BME280;36499;46.484;13.832;2024-03-22T01:29:44;93566.13;;;3.18;100.00
12471;BME280;36499;46.484;13.832;2024-03-22T01:32:11;93561.81;;;2.98;100.00
12471;BME280;36499;46.484;13.832;2024-03-22T01:34:36;93565.00;;;2.90;100.00
12471;BME280;36499;46.484;13.832;2024-03-22T01:37:03;93564.19;;;2.89;100.00
12471;BME280;36499;46.484;13.832;2024-03-22T01:39:29;93559.06;;;2.89;100.00
12471;BME280;36499;46.484;13.832;2024-03-22T01:41:55;93555.69;;;2.89;100.00
12471;BME280;36499;46.484;13.832;2024-03-22T01:44:27;93555.75;;;2.99;100.00
12471;BME280;36499;46.484;13.832;2024-03-22T01:46:54;93552.50;;;2.97;100.00
12471;BME280;36499;46.484;13.832;2024-03-22T01:49:21;93556.25;;;2.92;100.00
12471;BME280;36499;46.484;13.832;2024-03-22T01:51:48;93553.13;;;2.89;100.00
12471;BME280;36499;46.484;13.832;2024-03-22T01:54:15;93559.75;;;2.91;100.00
12471;BME280;36499;46.484;13.832;2024-03-22T01:56:42;93553.22;;;2.87;100.00
12471;BME280;36499;46.484;13.832;2024-03-22T01:59:08;93558.97;;;2.80;100.00
12471;BME280;36499;46.484;13.832;2024-03-22T02:01:35;93554.53;;;2.82;100.00
12471;BME280;36499;46.484;13.832;2024-03-22T02:04:01;93554.88;;;2.88;100.00
12471;BME280;36499;46.484;13.832;2024-03-22T02:06:28;93558.13;;;2.90;100.00
12471;BME280;36499;46.484;13.832;2024-03-22T02:08:53;93554.94;;;2.98;100.00
12471;BME280;36499;46.484;13.832;2024-03-22T02:11:20;93561.38;;;2.92;100.00
12471;BME280;36499;46.484;13.832;2024-03-22T02:13:46;93565.81;;;2.90;100.00
12471;BME280;36499;46.484;13.832;2024-03-22T02:16:13;93562.81;;;2.85;100.00
12471;BME280;36499;46.484;13.832;2024-03-22T02:18:38;93558.16;;;2.79;100.00
12471;BME280;36499;46.484;13.832;2024-03-22T02:21:05;93563.56;;;2.76;100.00
12471;BME280;36499;46.484;13.832;2024-03-22T02:23:35;93560.63;;;2.81;100.00
12471;BME280;36499;46.484;13.832;2024-03-22T02:26:03;93559.19;;;2.67;100.00
12471;BME280;36499;46.484;13.832;2024-03-22T02:28:30;93560.13;;;2.66;100.00
12471;BME280;36499;46.484;13.832;2024-03-22T02:30:57;93557.44;;;2.68;100.00
12471;BME280;36499;46.484;13.832;2024-03-22T02:33:24;93563.25;;;2.70;100.00
12471;BME280;36499;46.484;13.832;2024-03-22T02:35:50;93558.84;;;2.61;100.00
12471;BME280;36499;46.484;13.832;2024-03-22T02:38:17;93556.84;;;2.64;100.00
12471;BME280;36499;46.484;13.832;2024-03-22T02:40:43;93561.88;;;2.66;100.00
12471;BME280;36499;46.484;13.832;2024-03-22T02:43:11;93553.13;;;2.68;100.00
12471;BME280;36499;46.484;13.832;2024-03-22T02:45:37;93560.03;;;2.77;100.00
12471;BME280;36499;46.484;13.832;2024-03-22T02:48:04;93557.03;;;2.72;100.00
12471;BME280;36499;46.484;13.832;2024-03-22T02:50:36;93560.81;;;2.68;100.00
12471;BME280;36499;46.484;13.832;2024-03-22T02:53:04;93558.38;;;2.67;100.00
12471;BME280;36499;46.484;13.832;2024-03-22T02:55:30;93564.44;;;2.66;100.00
12471;BME280;36499;46.484;13.832;2024-03-22T02:58:02;93559.34;;;2.54;100.00
12471;BME280;36499;46.484;13.832;2024-03-22T03:00:28;93557.22;;;2.60;100.00
12471;BME280;36499;46.484;13.832;2024-03-22T03:02:54;93561.09;;;2.54;100.00
12471;BME280;36499;46.484;13.832;2024-03-22T03:05:20;93570.66;;;2.52;100.00
12471;BME280;36499;46.484;13.832;2024-03-22T03:07:47;93561.69;;;2.46;100.00
12471;BME280;36499;46.484;13.832;2024-03-22T03:10:13;93567.75;;;2.45;100.00
12471;BME280;36499;46.484;13.832;2024-03-22T03:12:40;93565.81;;;2.38;100.00
12471;BME280;36499;46.484;13.832;2024-03-22T03:15:06;93561.13;;;2.43;100.00
12471;BME280;36499;46.484;13.832;2024-03-22T03:17:32;93556.13;;;2.41;100.00
12471;BME280;36499;46.484;13.832;2024-03-22T03:19:58;93559.94;;;2.47;100.00
12471;BME280;36499;46.484;13.832;2024-03-22T03:22:24;93564.38;;;2.45;100.00
12471;BME280;36499;46.484;13.832;2024-03-22T03:24:50;93558.38;;;2.35;100.00
12471;BME280;36499;46.484;13.832;2024-03-22T03:27:17;93557.69;;;2.33;100.00
12471;BME280;36499;46.484;13.832;2024-03-22T03:29:42;93558.75;;;2.30;100.00
12471;BME280;36499;46.484;13.832;2024-03-22T03:32:09;93556.75;;;2.34;100.00
12471;BME280;36499;46.484;13.832;2024-03-22T03:34:34;93555.47;;;2.28;100.00
12471;BME280;36499;46.484;13.832;2024-03-22T03:37:01;93553.72;;;2.29;100.00
12471;BME280;36499;46.484;13.832;2024-03-22T03:39:27;93558.28;;;2.25;100.00
12471;BME280;36499;46.484;13.832;2024-03-22T03:41:55;93552.22;;;2.26;100.00
12471;BME280;36499;46.484;13.832;2024-03-22T03:44:20;93548.72;;;2.27;100.00
12471;BME280;36499;46.484;13.832;2024-03-22T03:46:47;93551.66;;;2.22;100.00
12471;BME280;36499;46.484;13.832;2024-03-22T03:49:13;93544.09;;;2.10;100.00
12471;BME280;36499;46.484;13.832;2024-03-22T03:51:39;93541.78;;;2.07;100.00
12471;BME280;36499;46.484;13.832;2024-03-22T03:54:05;93537.41;;;1.98;100.00
12471;BME280;36499;46.484;13.832;2024-03-22T03:56:31;93540.06;;;1.96;100.00
12471;BME280;36499;46.484;13.832;2024-03-22T03:58:57;93539.22;;;2.07;100.00
12471;BME280;36499;46.484;13.832;2024-03-22T04:01:23;93543.88;;;2.13;100.00
12471;BME280;36499;46.484;13.832;2024-03-22T04:03:49;93543.88;;;2.13;100.00
12471;BME280;36499;46.484;13.832;2024-03-22T04:06:16;93540.84;;;2.08;100.00
12471;BME280;36499;46.484;13.832;2024-03-22T04:08:42;93544.97;;;1.99;100.00
12471;BME280;36499;46.484;13.832;2024-03-22T04:11:09;93542.00;;;2.04;100.00
12471;BME280;36499;46.484;13.832;2024-03-22T04:13:34;93536.78;;;2.05;100.00
12471;BME280;36499;46.484;13.832;2024-03-22T04:16:01;93533.09;;;1.98;100.00
12471;BME280;36499;46.484;13.832;2024-03-22T04:18:27;93528.78;;;1.99;100.00
12471;BME280;36499;46.484;13.832;2024-03-22T04:20:55;93528.66;;;2.00;100.00
12471;BME280;36499;46.484;13.832;2024-03-22T04:23:21;93532.63;;;1.93;100.00
12471;BME280;36499;46.484;13.832;2024-03-22T04:25:55;93526.94;;;1.89;100.00
12471;BME280;36499;46.484;13.832;2024-03-22T04:28:21;93522.72;;;1.88;100.00
12471;BME280;36499;46.484;13.832;2024-03-22T04:31:04;93536.84;;;1.83;100.00
12471;BME280;36499;46.484;13.832;2024-03-22T04:33:31;93531.94;;;1.80;100.00
12471;BME280;36499;46.484;13.832;2024-03-22T04:35:59;93531.94;;;1.80;100.00
12471;BME280;36499;46.484;13.832;2024-03-22T04:38:26;93522.50;;;1.80;100.00
12471;BME280;36499;46.484;13.832;2024-03-22T04:40:53;93527.63;;;1.80;100.00
12471;BME280;36499;46.484;13.832;2024-03-22T04:43:20;93523.91;;;1.84;100.00
12471;BME280;36499;46.484;13.832;2024-03-22T04:45:47;93519.47;;;1.86;100.00
12471;BME280;36499;46.484;13.832;2024-03-22T04:48:18;93525.66;;;1.84;100.00
12471;BME280;36499;46.484;13.832;2024-03-22T04:50:45;93518.91;;;1.83;100.00
12471;BME280;36499;46.484;13.832;2024-03-22T04:53:12;93528.66;;;1.89;100.00
12471;BME280;36499;46.484;13.832;2024-03-22T04:55:39;93529.25;;;1.81;100.00
12471;BME280;36499;46.484;13.832;2024-03-22T04:58:11;93536.38;;;1.78;100.00
12471;BME280;36499;46.484;13.832;2024-03-22T05:00:38;93541.72;;;1.75;100.00
12471;BME280;36499;46.484;13.832;2024-03-22T05:03:04;93537.53;;;1.74;100.00
12471;BME280;36499;46.484;13.832;2024-03-22T05:05:30;93535.22;;;1.71;100.00
12471;BME280;36499;46.484;13.832;2024-03-22T05:07:56;93539.09;;;1.65;100.00
12471;BME280;36499;46.484;13.832;2024-03-22T05:10:22;93539.78;;;1.56;100.00
12471;BME280;36499;46.484;13.832;2024-03-22T05:12:48;93538.38;;;1.52;100.00
12471;BME280;36499;46.484;13.832;2024-03-22T05:15:15;93545.13;;;1.53;100.00
12471;BME280;36499;46.484;13.832;2024-03-22T05:17:40;93552.59;;;1.45;100.00
12471;BME280;36499;46.484;13.832;2024-03-22T05:20:08;93547.00;;;1.51;100.00
12471;BME280;36499;46.484;13.832;2024-03-22T05:22:39;93540.25;;;1.61;100.00
12471;BME280;36499;46.484;13.832;2024-03-22T05:25:06;93546.16;;;1.73;100.00
12471;BME280;36499;46.484;13.832;2024-03-22T05:27:32;93542.06;;;1.93;100.00
12471;BME280;36499;46.484;13.832;2024-03-22T05:29:59;93557.31;;;1.83;100.00
12471;BME280;36499;46.484;13.832;2024-03-22T05:32:25;93561.28;;;1.87;100.00
12471;BME280;36499;46.484;13.832;2024-03-22T05:34:52;93560.47;;;1.86;100.00
12471;BME280;36499;46.484;13.832;2024-03-22T05:37:18;93557.91;;;1.86;100.00
12471;BME280;36499;46.484;13.832;2024-03-22T05:39:45;93563.72;;;1.88;100.00
12471;BME280;36499;46.484;13.832;2024-03-22T05:42:10;93557.69;;;1.89;100.00
12471;BME280;36499;46.484;13.832;2024-03-22T05:44:37;93554.75;;;1.94;100.00
12471;BME280;36499;46.484;13.832;2024-03-22T05:47:03;93548.06;;;2.03;100.00
12471;BME280;36499;46.484;13.832;2024-03-22T05:49:29;93550.75;;;2.01;100.00
12471;BME280;36499;46.484;13.832;2024-03-22T05:51:55;93551.09;;;2.08;100.00
12471;BME280;36499;46.484;13.832;2024-03-22T05:54:22;93550.38;;;2.17;100.00
12471;BME280;36499;46.484;13.832;2024-03-22T05:56:47;93546.28;;;2.26;100.00
12471;BME280;36499;46.484;13.832;2024-03-22T05:59:14;93544.75;;;2.34;100.00
12471;BME280;36499;46.484;13.832;2024-03-22T06:01:39;93542.13;;;2.45;100.00
12471;BME280;36499;46.484;13.832;2024-03-22T06:04:06;93536.88;;;2.47;100.00
12471;BME280;36499;46.484;13.832;2024-03-22T06:06:33;93536.63;;;2.50;100.00
12471;BME280;36499;46.484;13.832;2024-03-22T06:09:00;93534.25;;;2.58;100.00
12471;BME280;36499;46.484;13.832;2024-03-22T06:11:32;93538.53;;;2.69;100.00
12471;BME280;36499;46.484;13.832;2024-03-22T06:13:58;93546.66;;;2.74;100.00
12471;BME280;36499;46.484;13.832;2024-03-22T06:16:24;93534.38;;;2.77;100.00
12471;BME280;36499;46.484;13.832;2024-03-22T06:18:51;93539.16;;;2.82;100.00
12471;BME280;36499;46.484;13.832;2024-03-22T06:21:16;93533.03;;;2.94;100.00
12471;BME280;36499;46.484;13.832;2024-03-22T06:23:49;93531.47;;;3.03;100.00
12471;BME280;36499;46.484;13.832;2024-03-22T06:26:14;93529.09;;;3.20;100.00
12471;BME280;36499;46.484;13.832;2024-03-22T06:28:41;93520.91;;;3.27;100.00
12471;BME280;36499;46.484;13.832;2024-03-22T06:31:06;93511.47;;;3.37;100.00
12471;BME280;36499;46.484;13.832;2024-03-22T06:33:34;93519.47;;;3.43;100.00
12471;BME280;36499;46.484;13.832;2024-03-22T06:36:00;93521.66;;;3.48;100.00
12471;BME280;36499;46.484;13.832;2024-03-22T06:38:28;93511.28;;;3.59;100.00
12471;BME280;36499;46.484;13.832;2024-03-22T06:40:53;93502.00;;;3.68;100.00
12471;BME280;36499;46.484;13.832;2024-03-22T06:43:20;93507.56;;;3.73;100.00
12471;BME280;36499;46.484;13.832;2024-03-22T06:45:46;93505.28;;;3.89;100.00
12471;BME280;36499;46.484;13.832;2024-03-22T06:48:13;93503.97;;;4.04;100.00
12471;BME280;36499;46.484;13.832;2024-03-22T06:50:40;93500.19;;;4.18;100.00
12471;BME280;36499;46.484;13.832;2024-03-22T06:53:07;93501.84;;;4.38;100.00
12471;BME280;36499;46.484;13.832;2024-03-22T06:55:35;93499.38;;;4.46;100.00
12471;BME280;36499;46.484;13.832;2024-03-22T06:58:01;93504.00;;;4.62;100.00
12471;BME280;36499;46.484;13.832;2024-03-22T07:00:27;93504.69;;;4.74;100.00
12471;BME280;36499;46.484;13.832;2024-03-22T07:02:54;93510.59;;;4.84;100.00
12471;BME280;36499;46.484;13.832;2024-03-22T07:05:21;93507.75;;;4.97;100.00
12471;BME280;36499;46.484;13.832;2024-03-22T07:07:47;93506.75;;;5.17;100.00
12471;BME280;36499;46.484;13.832;2024-03-22T07:10:15;93514.16;;;5.39;100.00
12471;BME280;36499;46.484;13.832;2024-03-22T07:12:41;93514.28;;;5.47;100.00
12471;BME280;36499;46.484;13.832;2024-03-22T07:15:07;93508.78;;;5.60;100.00
12471;BME280;36499;46.484;13.832;2024-03-22T07:17:34;93502.72;;;5.79;100.00
12471;BME280;36499;46.484;13.832;2024-03-22T07:20:00;93498.88;;;5.83;100.00
12471;BME280;36499;46.484;13.832;2024-03-22T07:22:27;93510.09;;;5.91;100.00
12471;BME280;36499;46.484;13.832;2024-03-22T07:24:52;93499.88;;;6.00;100.00
12471;BME280;36499;46.484;13.832;2024-03-22T07:27:20;93501.31;;;6.12;100.00
12471;BME280;36499;46.484;13.832;2024-03-22T07:29:46;93495.50;;;6.27;100.00
12471;BME280;36499;46.484;13.832;2024-03-22T07:32:12;93493.81;;;6.36;100.00
12471;BME280;36499;46.484;13.832;2024-03-22T07:34:38;93499.44;;;6.49;100.00
12471;BME280;36499;46.484;13.832;2024-03-22T07:37:04;93498.84;;;6.55;100.00
12471;BME280;36499;46.484;13.832;2024-03-22T07:39:30;93493.75;;;6.64;100.00
12471;BME280;36499;46.484;13.832;2024-03-22T07:41:57;93500.31;;;6.58;100.00
12471;BME280;36499;46.484;13.832;2024-03-22T07:44:22;93502.97;;;6.66;100.00
12471;BME280;36499;46.484;13.832;2024-03-22T07:46:51;93497.72;;;6.76;100.00
12471;BME280;36499;46.484;13.832;2024-03-22T07:49:17;93496.56;;;6.70;100.00
12471;BME280;36499;46.484;13.832;2024-03-22T07:51:44;93485.34;;;6.79;100.00
12471;BME280;36499;46.484;13.832;2024-03-22T07:54:09;93491.25;;;6.98;100.00
12471;BME280;36499;46.484;13.832;2024-03-22T07:56:36;93483.34;;;7.25;100.00
12471;BME280;36499;46.484;13.832;2024-03-22T07:59:01;93484.78;;;7.45;100.00
12471;BME280;36499;46.484;13.832;2024-03-22T08:01:28;93477.91;;;7.62;100.00
12471;BME280;36499;46.484;13.832;2024-03-22T08:03:54;93481.25;;;7.88;100.00
12471;BME280;36499;46.484;13.832;2024-03-22T08:06:20;93476.91;;;7.97;100.00
12471;BME280;36499;46.484;13.832;2024-03-22T08:08:46;93476.13;;;8.13;100.00
12471;BME280;36499;46.484;13.832;2024-03-22T08:11:13;93488.47;;;8.19;100.00
12471;BME280;36499;46.484;13.832;2024-03-22T08:13:38;93477.28;;;8.26;100.00
12471;BME280;36499;46.484;13.832;2024-03-22T08:16:05;93477.81;;;8.38;100.00
12471;BME280;36499;46.484;13.832;2024-03-22T08:18:31;93474.63;;;8.52;100.00
12471;BME280;36499;46.484;13.832;2024-03-22T08:20:59;93470.25;;;8.69;100.00
12471;BME280;36499;46.484;13.832;2024-03-22T08:23:24;93471.72;;;8.88;100.00
12471;BME280;36499;46.484;13.832;2024-03-22T08:25:51;93473.78;;;9.09;100.00
12471;BME280;36499;46.484;13.832;2024-03-22T08:28:17;93472.47;;;9.29;100.00
12471;BME280;36499;46.484;13.832;2024-03-22T08:30:43;93463.34;;;9.49;100.00
12471;BME280;36499;46.484;13.832;2024-03-22T08:33:10;93460.03;;;9.63;100.00
12471;BME280;36499;46.484;13.832;2024-03-22T08:35:37;93456.25;;;9.82;100.00
12471;BME280;36499;46.484;13.832;2024-03-22T08:38:03;93451.03;;;9.90;94.97
12471;BME280;36499;46.484;13.832;2024-03-22T08:40:36;93454.16;;;10.17;96.41
12471;BME280;36499;46.484;13.832;2024-03-22T08:43:01;93451.34;;;10.26;94.52
12471;BME280;36499;46.484;13.832;2024-03-22T08:45:28;93446.09;;;10.35;92.00
12471;BME280;36499;46.484;13.832;2024-03-22T08:47:54;93447.84;;;10.42;87.41
12471;BME280;36499;46.484;13.832;2024-03-22T08:50:20;93445.81;;;10.52;89.97
12471;BME280;36499;46.484;13.832;2024-03-22T08:52:46;93442.28;;;10.68;88.18
12471;BME280;36499;46.484;13.832;2024-03-22T08:55:12;93432.47;;;10.78;86.94
12471;BME280;36499;46.484;13.832;2024-03-22T08:57:38;93432.22;;;10.88;84.64
12471;BME280;36499;46.484;13.832;2024-03-22T09:00:05;93429.47;;;11.04;77.72
12471;BME280;36499;46.484;13.832;2024-03-22T09:02:33;93428.63;;;11.26;84.21
12471;BME280;36499;46.484;13.832;2024-03-22T09:05:00;93428.19;;;11.38;78.26
12471;BME280;36499;46.484;13.832;2024-03-22T09:07:26;93432.16;;;11.63;78.86
12471;BME280;36499;46.484;13.832;2024-03-22T09:09:52;93418.66;;;11.74;71.81
12471;BME280;36499;46.484;13.832;2024-03-22T09:12:19;93418.47;;;11.90;66.76
12471;BME280;36499;46.484;13.832;2024-03-22T09:14:46;93413.44;;;12.04;71.16
12471;BME280;36499;46.484;13.832;2024-03-22T09:17:11;93418.50;;;12.12;68.38
12471;BME280;36499;46.484;13.832;2024-03-22T09:19:38;93409.84;;;12.26;63.65
12471;BME280;36499;46.484;13.832;2024-03-22T09:22:03;93401.38;;;12.39;60.76
12471;BME280;36499;46.484;13.832;2024-03-22T09:24:30;93402.03;;;12.47;56.13
12471;BME280;36499;46.484;13.832;2024-03-22T09:26:56;93396.88;;;12.54;52.92
12471;BME280;36499;46.484;13.832;2024-03-22T09:29:24;93394.16;;;12.83;55.19
12471;BME280;36499;46.484;13.832;2024-03-22T09:31:50;93392.97;;;12.86;51.57
12471;BME280;36499;46.484;13.832;2024-03-22T09:34:17;93388.25;;;12.96;52.00
12471;BME280;36499;46.484;13.832;2024-03-22T09:36:42;93381.34;;;13.10;53.96
12471;BME280;36499;46.484;13.832;2024-03-22T09:39:09;93381.97;;;13.18;47.77
12471;BME280;36499;46.484;13.832;2024-03-22T09:41:41;93370.59;;;13.26;45.71
12471;BME280;36499;46.484;13.832;2024-03-22T09:44:12;93373.03;;;13.34;46.73
12471;BME280;36499;46.484;13.832;2024-03-22T09:46:40;93375.09;;;13.45;44.55
12471;BME280;36499;46.484;13.832;2024-03-22T09:49:12;93375.56;;;13.55;44.89
12471;BME280;36499;46.484;13.832;2024-03-22T09:51:39;93373.19;;;13.60;42.53
12471;BME280;36499;46.484;13.832;2024-03-22T09:54:09;93372.19;;;13.61;42.85
12471;BME280;36499;46.484;13.832;2024-03-22T09:56:35;93374.06;;;13.74;44.16
12471;BME280;36499;46.484;13.832;2024-03-22T09:59:02;93372.75;;;13.98;43.98
12471;BME280;36499;46.484;13.832;2024-03-22T10:01:29;93366.59;;;14.25;45.94
12471;BME280;36499;46.484;13.832;2024-03-22T10:03:56;93364.25;;;14.63;44.59
12471;BME280;36499;46.484;13.832;2024-03-22T10:06:21;93366.84;;;14.57;42.43
12471;BME280;36499;46.484;13.832;2024-03-22T10:08:48;93356.22;;;14.72;42.24
12471;BME280;36499;46.484;13.832;2024-03-22T10:11:14;93365.03;;;14.51;41.93
12471;BME280;36499;46.484;13.832;2024-03-22T10:13:40;93362.81;;;14.54;40.35
12471;BME280;36499;46.484;13.832;2024-03-22T10:16:06;93356.81;;;14.80;42.06
12471;BME280;36499;46.484;13.832;2024-03-22T10:18:33;93353.97;;;15.28;41.57
12471;BME280;36499;46.484;13.832;2024-03-22T10:21:03;93338.16;;;15.68;39.76
12471;BME280;36499;46.484;13.832;2024-03-22T10:23:31;93346.50;;;15.38;37.39
12471;BME280;36499;46.484;13.832;2024-03-22T10:25:57;93342.06;;;15.45;40.45
12471;BME280;36499;46.484;13.832;2024-03-22T10:28:25;93333.72;;;15.61;38.86
12471;BME280;36499;46.484;13.832;2024-03-22T10:30:51;93339.19;;;15.53;38.63
12471;BME280;36499;46.484;13.832;2024-03-22T10:33:21;93331.91;;;15.62;38.19
12471;BME280;36499;46.484;13.832;2024-03-22T10:35:52;93326.75;;;15.49;37.18
12471;BME280;36499;46.484;13.832;2024-03-22T10:38:20;93316.09;;;15.31;36.12
12471;BME280;36499;46.484;13.832;2024-03-22T10:40:46;93311.25;;;15.34;37.24
12471;BME280;36499;46.484;13.832;2024-03-22T10:43:16;93302.66;;;15.14;37.47
12471;BME280;36499;46.484;13.832;2024-03-22T10:45:42;93305.03;;;15.22;37.48
12471;BME280;36499;46.484;13.832;2024-03-22T10:48:17;93312.09;;;15.21;37.59
12471;BME280;36499;46.484;13.832;2024-03-22T10:50:45;93303.81;;;15.24;37.79
12471;BME280;36499;46.484;13.832;2024-03-22T10:53:23;93302.34;;;15.48;37.68
12471;BME280;36499;46.484;13.832;2024-03-22T10:55:50;93287.56;;;15.67;37.41
12471;BME280;36499;46.484;13.832;2024-03-22T10:58:18;93290.16;;;15.74;37.13
12471;BME280;36499;46.484;13.832;2024-03-22T11:00:46;93285.13;;;15.72;36.76
12471;BME280;36499;46.484;13.832;2024-03-22T11:03:13;93272.47;;;16.07;38.29
12471;BME280;36499;46.484;13.832;2024-03-22T11:05:48;93281.69;;;16.16;35.48
12471;BME280;36499;46.484;13.832;2024-03-22T11:08:28;93275.56;;;15.91;35.54
12471;BME280;36499;46.484;13.832;2024-03-22T11:10:56;93281.09;;;15.70;35.73
12471;BME280;36499;46.484;13.832;2024-03-22T11:13:23;93271.25;;;15.65;34.71
12471;BME280;36499;46.484;13.832;2024-03-22T11:15:49;93266.16;;;15.77;35.12
12471;BME280;36499;46.484;13.832;2024-03-22T11:18:16;93261.44;;;15.92;37.02
12471;BME280;36499;46.484;13.832;2024-03-22T11:20:42;93253.75;;;15.97;35.70
12471;BME280;36499;46.484;13.832;2024-03-22T11:23:10;93256.59;;;15.95;36.09
12471;BME280;36499;46.484;13.832;2024-03-22T11:25:36;93244.22;;;16.09;36.04
12471;BME280;36499;46.484;13.832;2024-03-22T11:28:03;93248.00;;;16.20;34.67
12471;BME280;36499;46.484;13.832;2024-03-22T11:30:29;93241.03;;;16.01;34.42
12471;BME280;36499;46.484;13.832;2024-03-22T11:32:56;93240.47;;;15.92;34.30
12471;BME280;36499;46.484;13.832;2024-03-22T11:35:22;93228.94;;;16.00;34.13
12471;BME280;36499;46.484;13.832;2024-03-22T11:37:50;93233.91;;;16.14;34.27
12471;BME280;36499;46.484;13.832;2024-03-22T11:40:16;93224.44;;;16.13;34.32
12471;BME280;36499;46.484;13.832;2024-03-22T11:42:46;93223.38;;;16.46;36.04
12471;BME280;36499;46.484;13.832;2024-03-22T11:45:15;93211.00;;;16.53;32.73
12471;BME280;36499;46.484;13.832;2024-03-22T11:47:43;93206.47;;;16.85;33.34
12471;BME280;36499;46.484;13.832;2024-03-22T11:50:11;93200.06;;;17.17;34.31
12471;BME280;36499;46.484;13.832;2024-03-22T11:52:40;93194.84;;;17.47;34.47
12471;BME280;36499;46.484;13.832;2024-03-22T11:55:06;93193.69;;;17.91;32.61
12471;BME280;36499;46.484;13.832;2024-03-22T11:57:32;93196.09;;;18.05;31.30
12471;BME280;36499;46.484;13.832;2024-03-22T12:00:03;93191.59;;;17.82;31.87
12471;BME280;36499;46.484;13.832;2024-03-22T12:02:33;93187.28;;;17.99;31.22
12471;BME280;36499;46.484;13.832;2024-03-22T12:05:00;93181.03;;;18.12;31.36
12471;BME280;36499;46.484;13.832;2024-03-22T12:07:27;93174.53;;;18.38;29.77
12471;BME280;36499;46.484;13.832;2024-03-22T12:09:53;93170.56;;;18.70;31.62
12471;BME280;36499;46.484;13.832;2024-03-22T12:12:22;93163.22;;;18.96;27.25
12471;BME280;36499;46.484;13.832;2024-03-22T12:14:47;93172.81;;;19.02;27.10
12471;BME280;36499;46.484;13.832;2024-03-22T12:17:16;93169.59;;;19.11;27.88
12471;BME280;36499;46.484;13.832;2024-03-22T12:19:42;93167.63;;;19.18;28.08
12471;BME280;36499;46.484;13.832;2024-03-22T12:22:09;93159.28;;;19.21;26.18
12471;BME280;36499;46.484;13.832;2024-03-22T12:24:34;93156.66;;;19.10;28.13
12471;BME280;36499;46.484;13.832;2024-03-22T12:27:01;93148.53;;;19.11;26.98
12471;BME280;36499;46.484;13.832;2024-03-22T12:29:27;93150.56;;;18.57;27.32
12471;BME280;36499;46.484;13.832;2024-03-22T12:31:53;93139.53;;;18.49;29.17
12471;BME280;36499;46.484;13.832;2024-03-22T12:34:19;93143.09;;;18.54;28.49
12471;BME280;36499;46.484;13.832;2024-03-22T12:36:46;93129.69;;;18.79;28.57
12471;BME280;36499;46.484;13.832;2024-03-22T12:39:11;93136.84;;;19.07;28.14
12471;BME280;36499;46.484;13.832;2024-03-22T12:41:38;93125.91;;;19.27;28.63
12471;BME280;36499;46.484;13.832;2024-03-22T12:44:05;93121.78;;;19.31;28.06
12471;BME280;36499;46.484;13.832;2024-03-22T12:46:30;93129.19;;;19.34;27.12
12471;BME280;36499;46.484;13.832;2024-03-22T12:48:57;93122.03;;;19.58;28.03